sensor_id;sensor_type;location;lat;lon;timestamp;P1;durP1;ratioP1;P2;durP2;ratioP2
55527;SDS011;52818;43.308;21.916;2023-04-15T00:01:45;4.00;;;1.60;;
55527;SDS011;52818;43.308;21.916;2023-04-15T00:03:45;6.00;;;1.80;;
55527;SDS011;52818;43.308;21.916;2023-04-15T00:05:45;4.60;;;;;
55527;SDS011;52818;43.308;21.916;2023-04-15T00:07:45;5.00;;;2.30;;
55527;SDS011;52818;43.308;21.916;2023-04-15T00:09:45;7.30;;;;;
55527;SDS011;52818;43.308;21.916;2023-04-15T00:11:45;4.80;;;2.00;;
55527;SDS011;52818;43.308;21.916;2023-04-15T00:13:45;6.40;;;1.90;;
55527;SDS011;52818;43.308;21.916;2023-04-15T00:15:45;6.80;;;2.00;;
55527;SDS011;52818;43.308;21.916;2023-04-15T00:17:45;4.80;;;1.80;;
55527;SDS011;52818;43.308;21.916;2023-04-15T00:19:45;7.50;;;2.50;;
55527;SDS011;52818;43.308;21.916;2023-04-15T00:21:46;7.00;;;2.20;;
55527;SDS011;52818;43.308;21.916;2023-04-15T00:23:46;6.30;;;1.80;;
55527;SDS011;52818;43.308;21.916;2023-04-15T00:25:46;5.70;;;;;
55527;SDS011;52818;43.308;21.916;2023-04-15T00:27:46;4.00;;;1.40;;
55527;SDS011;52818;43.308;21.916;2023-04-15T00:29:46;5.50;;;1.70;;
55527;SDS011;52818;43.308;21.916;2023-04-15T00:31:46;3.40;;;1.30;;
55527;SDS011;52818;43.308;21.916;2023-04-15T00:33:47;4.80;;;1.20;;
55527;SDS011;52818;43.308;21.916;2023-04-15T00:35:46;7.70;;;3.50;;
55527;SDS011;52818;43.308;21.916;2023-04-15T00:37:46;8.30;;;3.10;;
55527;SDS011;52818;43.308;21.916;2023-04-15T00:39:46;5.90;;;2.40;;
55527;SDS011;52818;43.308;21.916;2023-04-15T00:41:46;6.30;;;2.70;;
55527;SDS011;52818;43.308;21.916;2023-04-15T00:43:47;5.30;;;2.00;;
55527;SDS011;52818;43.308;21.916;2023-04-15T00:45:47;4.90;;;;;
55527;SDS011;52818;43.308;21.916;2023-04-15T00:47:47;4.00;;;1.80;;
55527;SDS011;52818;43.308;21.916;2023-04-15T00:49:47;2.10;;;1.30;;
55527;SDS011;52818;43.308;21.916;2023-04-15T00:51:47;3.40;;;1.50;;
55527;SDS011;52818;43.308;21.916;2023-04-15T00:53:47;2.40;;;;;
55527;SDS011;52818;43.308;21.916;2023-04-15T00:55:47;2.60;;;1.10;;
55527;SDS011;52818;43.308;21.916;2023-04-15T00:57:47;3.00;;;0.80;;
55527;SDS011;52818;43.308;21.916;2023-04-15T00:59:47;4.10;;;1.20;;
55527;SDS011;52818;43.308;21.916;2023-04-15T01:01:47;3.30;;;1.30;;
55527;SDS011;52818;43.308;21.916;2023-04-15T01:03:48;;;;0.90;;
55527;SDS011;52818;43.308;21.916;2023-04-15T01:05:48;3.00;;;1.70;;
55527;SDS011;52818;43.308;21.916;2023-04-15T01:07:48;4.70;;;2.20;;
55527;SDS011;52818;43.308;21.916;2023-04-15T01:09:48;4.90;;;2.10;;
55527;SDS011;52818;43.308;21.916;2023-04-15T01:11:48;3.70;;;2.20;;
55527;SDS011;52818;43.308;21.916;2023-04-15T01:13:48;4.20;;;2.00;;
55527;SDS011;52818;43.308;21.916;2023-04-15T01:15:48;4.10;;;2.20;;
55527;SDS011;52818;43.308;21.916;2023-04-15T01:17:48;4.60;;;2.10;;
55527;SDS011;52818;43.308;21.916;2023-04-15T01:19:48;4.20;;;1.80;;
55527;SDS011;52818;43.308;21.916;2023-04-15T01:21:48;5.20;;;2.50;;
55527;SDS011;52818;43.308;21.916;2023-04-15T01:23:48;4.70;;;1.80;;
55527;SDS011;52818;43.308;21.916;2023-04-15T01:25:49;3.90;;;;;
55527;SDS011;52818;43.308;21.916;2023-04-15T01:27:49;3.10;;;1.10;;
55527;SDS011;52818;43.308;21.916;2023-04-15T01:29:49;5.50;;;1.90;;
55527;SDS011;52818;43.308;21.916;2023-04-15T01:31:49;4.80;;;2.70;;
55527;SDS011;52818;43.308;21.916;2023-04-15T01:33:49;;;;2.20;;
55527;SDS011;52818;43.308;21.916;2023-04-15T01:35:49;12.20;;;7.60;;
55527;SDS011;52818;43.308;21.916;2023-04-15T01:37:49;15.90;;;11.50;;
55527;SDS011;52818;43.308;21.916;2023-04-15T01:39:49;7.60;;;6.20;;
55527;SDS011;52818;43.308;21.916;2023-04-15T01:41:49;7.70;;;4.90;;
55527;SDS011;52818;43.308;21.916;2023-04-15T01:43:49;11.00;;;8.90;;
55527;SDS011;52818;43.308;21.916;2023-04-15T01:46:19;10.00;;;6.10;;
55527;SDS011;52818;43.308;21.916;2023-04-15T01:48:19;13.30;;;9.60;;
55527;SDS011;52818;43.308;21.916;2023-04-15T01:50:20;15.00;;;11.00;;
55527;SDS011;52818;43.308;21.916;2023-04-15T01:52:20;9.30;;;6.20;;
55527;SDS011;52818;43.308;21.916;2023-04-15T01:54:20;11.70;;;7.70;;
55527;SDS011;52818;43.308;21.916;2023-04-15T01:56:20;10.10;;;6.40;;
55527;SDS011;52818;43.308;21.916;2023-04-15T01:58:20;9.20;;;5.80;;
55527;SDS011;52818;43.308;21.916;2023-04-15T02:00:20;9.60;;;6.60;;
55527;SDS011;52818;43.308;21.916;2023-04-15T02:02:20;8.80;;;4.70;;
55527;SDS011;52818;43.308;21.916;2023-04-15T02:04:20;7.00;;;4.00;;
55527;SDS011;52818;43.308;21.916;2023-04-15T02:06:21;6.20;;;3.70;;
55527;SDS011;52818;43.308;21.916;2023-04-15T02:08:21;5.70;;;3.00;;
55527;SDS011;52818;43.308;21.916;2023-04-15T02:10:21;6.00;;;3.50;;
55527;SDS011;52818;43.308;21.916;2023-04-15T02:12:21;;;;2.90;;
55527;SDS011;52818;43.308;21.916;2023-04-15T02:14:21;6.50;;;3.30;;
55527;SDS011;52818;43.308;21.916;2023-04-15T02:16:21;10.20;;;5.50;;
55527;SDS011;52818;43.308;21.916;2023-04-15T02:18:21;9.60;;;5.10;;
55527;SDS011;52818;43.308;21.916;2023-04-15T02:20:21;11.40;;;6.60;;
55527;SDS011;52818;43.308;21.916;2023-04-15T02:22:21;7.00;;;4.00;;
55527;SDS011;52818;43.308;21.916;2023-04-15T02:24:22;7.60;;;4.40;;
55527;SDS011;52818;43.308;21.916;2023-04-15T02:26:22;6.90;;;3.60;;
55527;SDS011;52818;43.308;21.916;2023-04-15T02:28:22;6.10;;;4.00;;
55527;SDS011;52818;43.308;21.916;2023-04-15T02:30:22;10.30;;;4.50;;
55527;SDS011;52818;43.308;21.916;2023-04-15T02:32:22;8.50;;;4.20;;
55527;SDS011;52818;43.308;21.916;2023-04-15T02:34:22;6.80;;;3.10;;
55527;SDS011;52818;43.308;21.916;2023-04-15T02:36:22;5.00;;;2.70;;
55527;SDS011;52818;43.308;21.916;2023-04-15T02:38:22;;;;2.30;;
55527;SDS011;52818;43.308;21.916;2023-04-15T02:40:22;4.80;;;2.40;;
55527;SDS011;52818;43.308;21.916;2023-04-15T02:42:23;4.00;;;2.10;;
55527;SDS011;52818;43.308;21.916;2023-04-15T02:44:23;4.20;;;2.70;;
55527;SDS011;52818;43.308;21.916;2023-04-15T02:46:23;4.30;;;2.40;;
55527;SDS011;52818;43.308;21.916;2023-04-15T02:48:23;4.40;;;2.70;;
55527;SDS011;52818;43.308;21.916;2023-04-15T02:50:23;6.20;;;3.40;;
55527;SDS011;52818;43.308;21.916;2023-04-15T02:52:23;6.40;;;3.30;;
55527;SDS011;52818;43.308;21.916;2023-04-15T02:54:23;8.10;;;4.50;;
55527;SDS011;52818;43.308;21.916;2023-04-15T02:56:23;9.60;;;5.20;;
55527;SDS011;52818;43.308;21.916;2023-04-15T02:58:23;12.50;;;7.50;;
55527;SDS011;52818;43.308;21.916;2023-04-15T03:00:24;11.70;;;7.40;;
55527;SDS011;52818;43.308;21.916;2023-04-15T03:02:24;11.00;;;5.80;;
55527;SDS011;52818;43.308;21.916;2023-04-15T03:04:24;15.40;;;8.80;;
55527;SDS011;52818;43.308;21.916;2023-04-15T03:06:24;15.90;;;9.00;;
55527;SDS011;52818;43.308;21.916;2023-04-15T03:08:24;14.30;;;8.10;;
55527;SDS011;52818;43.308;21.916;2023-04-15T03:10:24;15.20;;;8.80;;
55527;SDS011;52818;43.308;21.916;2023-04-15T03:12:24;7.70;;;4.80;;
55527;SDS011;52818;43.308;21.916;2023-04-15T03:14:24;12.40;;;5.60;;
55527;SDS011;52818;43.308;21.916;2023-04-15T03:16:24;9.10;;;4.90;;
55527;SDS011;52818;43.308;21.916;2023-04-15T03:18:25;6.90;;;4.50;;
55527;SDS011;52818;43.308;21.916;2023-04-15T03:20:25;7.90;;;3.90;;
55527;SDS011;52818;43.308;21.916;2023-04-15T03:22:25;4.90;;;3.50;;
55527;SDS011;52818;43.308;21.916;2023-04-15T03:24:25;5.70;;;3.20;;
55527;SDS011;52818;43.308;21.916;2023-04-15T03:26:25;5.80;;;3.00;;
55527;SDS011;52818;43.308;21.916;2023-04-15T03:28:25;5.20;;;2.80;;
55527;SDS011;52818;43.308;21.916;2023-04-15T03:30:25;6.40;;;2.90;;
55527;SDS011;52818;43.308;21.916;2023-04-15T03:32:25;7.10;;;3.60;;
55527;SDS011;52818;43.308;21.916;2023-04-15T03:34:26;6.10;;;3.50;;
55527;SDS011;52818;43.308;21.916;2023-04-15T03:36:26;8.30;;;3.90;;
55527;SDS011;52818;43.308;21.916;2023-04-15T03:38:26;7.30;;;3.50;;
55527;SDS011;52818;43.308;21.916;2023-04-15T03:40:26;5.90;;;3.80;;
55527;SDS011;52818;43.308;21.916;2023-04-15T03:42:26;8.60;;;4.10;;
55527;SDS011;52818;43.308;21.916;2023-04-15T03:44:26;10.20;;;6.80;;
55527;SDS011;52818;43.308;21.916;2023-04-15T03:46:26;6.10;;;4.40;;
55527;SDS011;52818;43.308;21.916;2023-04-15T03:48:27;7.70;;;4.60;;
55527;SDS011;52818;43.308;21.916;2023-04-15T03:50:26;6.80;;;4.70;;
55527;SDS011;52818;43.308;21.916;2023-04-15T03:52:26;6.70;;;4.30;;
55527;SDS011;52818;43.308;21.916;2023-04-15T03:54:26;7.70;;;4.50;;
55527;SDS011;52818;43.308;21.916;2023-04-15T03:56:27;4.80;;;2.80;;
55527;SDS011;52818;43.308;21.916;2023-04-15T03:58:27;6.10;;;3.70;;
55527;SDS011;52818;43.308;21.916;2023-04-15T04:00:27;7.30;;;4.80;;
55527;SDS011;52818;43.308;21.916;2023-04-15T04:02:27;6.70;;;4.20;;
55527;SDS011;52818;43.308;21.916;2023-04-15T04:04:27;9.40;;;7.90;;
55527;SDS011;52818;43.308;21.916;2023-04-15T04:06:27;9.70;;;6.20;;
55527;SDS011;52818;43.308;21.916;2023-04-15T04:08:27;8.50;;;5.80;;
55527;SDS011;52818;43.308;21.916;2023-04-15T04:10:27;4.40;;;3.10;;
55527;SDS011;52818;43.308;21.916;2023-04-15T04:12:27;8.40;;;3.60;;
55527;SDS011;52818;43.308;21.916;2023-04-15T04:14:27;6.80;;;3.10;;
55527;SDS011;52818;43.308;21.916;2023-04-15T04:16:28;5.90;;;2.40;;
55527;SDS011;52818;43.308;21.916;2023-04-15T04:18:28;4.30;;;2.70;;
55527;SDS011;52818;43.308;21.916;2023-04-15T04:20:28;5.50;;;2.60;;
55527;SDS011;52818;43.308;21.916;2023-04-15T04:22:28;5.00;;;2.20;;
55527;SDS011;52818;43.308;21.916;2023-04-15T04:24:28;3.40;;;1.60;;
55527;SDS011;52818;43.308;21.916;2023-04-15T04:26:28;4.40;;;1.80;;
55527;SDS011;52818;43.308;21.916;2023-04-15T04:28:28;3.10;;;1.90;;
55527;SDS011;52818;43.308;21.916;2023-04-15T04:30:28;4.90;;;1.80;;
55527;SDS011;52818;43.308;21.916;2023-04-15T04:32:28;4.30;;;2.00;;
55527;SDS011;52818;43.308;21.916;2023-04-15T04:34:29;5.90;;;4.50;;
55527;SDS011;52818;43.308;21.916;2023-04-15T04:36:29;4.40;;;2.90;;
55527;SDS011;52818;43.308;21.916;2023-04-15T04:38:29;5.40;;;3.20;;
55527;SDS011;52818;43.308;21.916;2023-04-15T04:40:29;9.30;;;2.90;;
55527;SDS011;52818;43.308;21.916;2023-04-15T04:42:29;8.20;;;3.60;;
55527;SDS011;52818;43.308;21.916;2023-04-15T04:44:29;7.80;;;4.20;;
55527;SDS011;52818;43.308;21.916;2023-04-15T04:46:29;7.00;;;3.50;;
55527;SDS011;52818;43.308;21.916;2023-04-15T04:48:29;5.20;;;2.70;;
55527;SDS011;52818;43.308;21.916;2023-04-15T04:50:29;8.00;;;3.20;;
55527;SDS011;52818;43.308;21.916;2023-04-15T04:52:30;7.00;;;2.20;;
55527;SDS011;52818;43.308;21.916;2023-04-15T04:54:30;6.00;;;;;
55527;SDS011;52818;43.308;21.916;2023-04-15T04:56:30;4.60;;;2.10;;
55527;SDS011;52818;43.308;21.916;2023-04-15T04:58:30;5.10;;;1.90;;
55527;SDS011;52818;43.308;21.916;2023-04-15T05:00:30;6.80;;;2.80;;
55527;SDS011;52818;43.308;21.916;2023-04-15T05:02:30;4.50;;;2.50;;
55527;SDS011;52818;43.308;21.916;2023-04-15T05:04:30;7.70;;;3.50;;
55527;SDS011;52818;43.308;21.916;2023-04-15T05:06:30;9.50;;;5.40;;
55527;SDS011;52818;43.308;21.916;2023-04-15T05:08:30;7.80;;;4.80;;
55527;SDS011;52818;43.308;21.916;2023-04-15T05:10:31;9.30;;;6.20;;
55527;SDS011;52818;43.308;21.916;2023-04-15T05:12:31;9.20;;;6.30;;
55527;SDS011;52818;43.308;21.916;2023-04-15T05:14:31;10.90;;;7.40;;
55527;SDS011;52818;43.308;21.916;2023-04-15T05:16:31;16.10;;;9.50;;
55527;SDS011;52818;43.308;21.916;2023-04-15T05:18:31;16.80;;;9.90;;
55527;SDS011;52818;43.308;21.916;2023-04-15T05:20:31;12.70;;;8.20;;
55527;SDS011;52818;43.308;21.916;2023-04-15T05:22:31;10.70;;;6.40;;
55527;SDS011;52818;43.308;21.916;2023-04-15T05:24:31;9.50;;;5.60;;
55527;SDS011;52818;43.308;21.916;2023-04-15T05:26:31;10.40;;;5.20;;
55527;SDS011;52818;43.308;21.916;2023-04-15T05:28:31;6.60;;;3.90;;
55527;SDS011;52818;43.308;21.916;2023-04-15T05:30:31;8.00;;;4.80;;
55527;SDS011;52818;43.308;21.916;2023-04-15T05:32:32;9.60;;;5.50;;
55527;SDS011;52818;43.308;21.916;2023-04-15T05:34:32;7.60;;;4.50;;
55527;SDS011;52818;43.308;21.916;2023-04-15T05:36:32;7.20;;;3.90;;
55527;SDS011;52818;43.308;21.916;2023-04-15T05:38:32;6.40;;;3.50;;
55527;SDS011;52818;43.308;21.916;2023-04-15T05:40:32;5.10;;;3.00;;
55527;SDS011;52818;43.308;21.916;2023-04-15T05:42:32;5.70;;;3.30;;
55527;SDS011;52818;43.308;21.916;2023-04-15T05:44:32;8.00;;;4.70;;
55527;SDS011;52818;43.308;21.916;2023-04-15T05:46:32;15.60;;;10.10;;
55527;SDS011;52818;43.308;21.916;2023-04-15T05:48:32;10.60;;;7.20;;
55527;SDS011;52818;43.308;21.916;2023-04-15T05:50:32;13.60;;;7.70;;
55527;SDS011;52818;43.308;21.916;2023-04-15T05:52:33;11.00;;;6.70;;
55527;SDS011;52818;43.308;21.916;2023-04-15T05:54:33;13.20;;;6.90;;
55527;SDS011;52818;43.308;21.916;2023-04-15T05:56:33;16.40;;;10.80;;
55527;SDS011;52818;43.308;21.916;2023-04-15T05:58:33;20.90;;;11.60;;
55527;SDS011;52818;43.308;21.916;2023-04-15T06:00:33;19.40;;;12.00;;
55527;SDS011;52818;43.308;21.916;2023-04-15T06:02:33;18.70;;;11.50;;
55527;SDS011;52818;43.308;21.916;2023-04-15T06:04:33;16.50;;;10.50;;
55527;SDS011;52818;43.308;21.916;2023-04-15T06:06:33;12.70;;;8.00;;
55527;SDS011;52818;43.308;21.916;2023-04-15T06:08:33;9.20;;;5.90;;
55527;SDS011;52818;43.308;21.916;2023-04-15T06:10:34;9.80;;;5.70;;
55527;SDS011;52818;43.308;21.916;2023-04-15T06:12:34;10.80;;;5.80;;
55527;SDS011;52818;43.308;21.916;2023-04-15T06:14:34;9.00;;;5.10;;
55527;SDS011;52818;43.308;21.916;2023-04-15T06:16:34;6.50;;;3.90;;
55527;SDS011;52818;43.308;21.916;2023-04-15T06:18:34;6.80;;;4.00;;
55527;SDS011;52818;43.308;21.916;2023-04-15T06:20:34;7.40;;;4.20;;
55527;SDS011;52818;43.308;21.916;2023-04-15T06:22:35;7.10;;;3.90;;
55527;SDS011;52818;43.308;21.916;2023-04-15T06:26:34;7.60;;;5.10;;
55527;SDS011;52818;43.308;21.916;2023-04-15T06:28:34;9.30;;;5.50;;
55527;SDS011;52818;43.308;21.916;2023-04-15T06:30:35;8.50;;;;;
55527;SDS011;52818;43.308;21.916;2023-04-15T06:32:34;9.30;;;5.00;;
55527;SDS011;52818;43.308;21.916;2023-04-15T06:34:35;9.10;;;4.20;;
55527;SDS011;52818;43.308;21.916;2023-04-15T06:36:35;6.70;;;3.80;;
55527;SDS011;52818;43.308;21.916;2023-04-15T06:38:35;8.80;;;4.30;;
55527;SDS011;52818;43.308;21.916;2023-04-15T06:40:35;8.20;;;4.20;;
55527;SDS011;52818;43.308;21.916;2023-04-15T06:44:35;8.90;;;4.70;;
55527;SDS011;52818;43.308;21.916;2023-04-15T06:46:35;8.10;;;4.60;;
55527;SDS011;52818;43.308;21.916;2023-04-15T06:48:35;8.70;;;5.40;;
55527;SDS011;52818;43.308;21.916;2023-04-15T06:50:35;9.90;;;5.20;;
55527;SDS011;52818;43.308;21.916;2023-04-15T06:52:35;10.60;;;5.30;;
55527;SDS011;52818;43.308;21.916;2023-04-15T06:54:35;9.30;;;5.10;;
55527;SDS011;52818;43.308;21.916;2023-04-15T06:56:36;10.90;;;5.20;;
55527;SDS011;52818;43.308;21.916;2023-04-15T06:58:36;9.70;;;5.80;;
55527;SDS011;52818;43.308;21.916;2023-04-15T07:02:36;10.50;;;5.50;;
55527;SDS011;52818;43.308;21.916;2023-04-15T07:04:36;11.50;;;6.10;;
55527;SDS011;52818;43.308;21.916;2023-04-15T07:06:36;9.90;;;5.80;;
55527;SDS011;52818;43.308;21.916;2023-04-15T07:08:36;9.30;;;5.50;;
55527;SDS011;52818;43.308;21.916;2023-04-15T07:10:36;10.00;;;6.20;;
55527;SDS011;52818;43.308;21.916;2023-04-15T07:12:36;9.00;;;5.70;;
55527;SDS011;52818;43.308;21.916;2023-04-15T07:14:36;10.10;;;6.40;;
55527;SDS011;52818;43.308;21.916;2023-04-15T07:16:36;9.50;;;6.80;;
55527;SDS011;52818;43.308;21.916;2023-04-15T07:18:37;12.10;;;7.10;;
55527;SDS011;52818;43.308;21.916;2023-04-15T07:20:37;11.20;;;6.60;;
55527;SDS011;52818;43.308;21.916;2023-04-15T07:22:37;10.00;;;6.20;;
55527;SDS011;52818;43.308;21.916;2023-04-15T07:24:37;10.10;;;;;
55527;SDS011;52818;43.308;21.916;2023-04-15T07:26:37;13.30;;;;;
55527;SDS011;52818;43.308;21.916;2023-04-15T07:28:37;11.20;;;6.60;;
55527;SDS011;52818;43.308;21.916;2023-04-15T07:30:37;12.10;;;6.20;;
55527;SDS011;52818;43.308;21.916;2023-04-15T07:32:37;7.40;;;3.90;;
55527;SDS011;52818;43.308;21.916;2023-04-15T07:34:37;5.70;;;3.50;;
55527;SDS011;52818;43.308;21.916;2023-04-15T07:36:37;6.50;;;3.20;;
55527;SDS011;52818;43.308;21.916;2023-04-15T07:38:38;6.30;;;3.60;;
55527;SDS011;52818;43.308;21.916;2023-04-15T07:40:38;6.50;;;3.30;;
55527;SDS011;52818;43.308;21.916;2023-04-15T07:42:38;6.20;;;2.60;;
55527;SDS011;52818;43.308;21.916;2023-04-15T07:45:08;5.00;;;2.80;;
55527;SDS011;52818;43.308;21.916;2023-04-15T07:47:08;4.30;;;2.40;;
55527;SDS011;52818;43.308;21.916;2023-04-15T07:49:08;5.10;;;2.70;;
55527;SDS011;52818;43.308;21.916;2023-04-15T07:51:08;7.00;;;2.80;;
55527;SDS011;52818;43.308;21.916;2023-04-15T07:53:08;5.60;;;2.40;;
55527;SDS011;52818;43.308;21.916;2023-04-15T07:55:08;4.00;;;2.20;;
55527;SDS011;52818;43.308;21.916;2023-04-15T07:57:08;4.60;;;2.00;;
55527;SDS011;52818;43.308;21.916;2023-04-15T07:59:08;4.90;;;2.10;;
55527;SDS011;52818;43.308;21.916;2023-04-15T08:01:09;6.30;;;2.40;;
55527;SDS011;52818;43.308;21.916;2023-04-15T08:03:09;6.00;;;1.70;;
55527;SDS011;52818;43.308;21.916;2023-04-15T08:05:09;3.50;;;2.00;;
55527;SDS011;52818;43.308;21.916;2023-04-15T08:07:09;5.80;;;;;
55527;SDS011;52818;43.308;21.916;2023-04-15T08:09:10;4.30;;;1.70;;
55527;SDS011;52818;43.308;21.916;2023-04-15T08:11:09;4.40;;;;;
55527;SDS011;52818;43.308;21.916;2023-04-15T08:13:09;4.70;;;1.60;;
55527;SDS011;52818;43.308;21.916;2023-04-15T08:15:09;7.20;;;5.00;;
55527;SDS011;52818;43.308;21.916;2023-04-15T08:17:10;4.80;;;2.40;;
55527;SDS011;52818;43.308;21.916;2023-04-15T08:19:10;2.70;;;1.00;;
55527;SDS011;52818;43.308;21.916;2023-04-15T08:21:10;2.90;;;1.10;;
55527;SDS011;52818;43.308;21.916;2023-04-15T08:23:10;;;;1.20;;
55527;SDS011;52818;43.308;21.916;2023-04-15T08:25:10;5.60;;;3.90;;
55527;SDS011;52818;43.308;21.916;2023-04-15T08:27:10;5.80;;;3.20;;
55527;SDS011;52818;43.308;21.916;2023-04-15T08:29:10;3.20;;;1.60;;
55527;SDS011;52818;43.308;21.916;2023-04-15T08:31:10;3.10;;;;;
55527;SDS011;52818;43.308;21.916;2023-04-15T08:33:10;;;;1.50;;
55527;SDS011;52818;43.308;21.916;2023-04-15T08:35:11;5.50;;;1.90;;
55527;SDS011;52818;43.308;21.916;2023-04-15T08:37:11;3.40;;;1.40;;
55527;SDS011;52818;43.308;21.916;2023-04-15T08:39:11;2.50;;;1.00;;
55527;SDS011;52818;43.308;21.916;2023-04-15T08:41:16;5.10;;;1.30;;
55527;SDS011;52818;43.308;21.916;2023-04-15T08:43:12;4.10;;;1.20;;
55527;SDS011;52818;43.308;21.916;2023-04-15T08:45:11;3.40;;;;;
55527;SDS011;52818;43.308;21.916;2023-04-15T08:47:12;4.70;;;1.50;;
55527;SDS011;52818;43.308;21.916;2023-04-15T08:49:11;5.30;;;2.20;;
55527;SDS011;52818;43.308;21.916;2023-04-15T08:51:11;3.50;;;1.70;;
55527;SDS011;52818;43.308;21.916;2023-04-15T08:53:12;5.20;;;1.80;;
55527;SDS011;52818;43.308;21.916;2023-04-15T08:55:12;3.60;;;1.70;;
55527;SDS011;52818;43.308;21.916;2023-04-15T08:57:12;3.80;;;1.80;;
55527;SDS011;52818;43.308;21.916;2023-04-15T08:59:12;2.40;;;1.10;;
55527;SDS011;52818;43.308;21.916;2023-04-15T09:03:12;3.40;;;;;
55527;SDS011;52818;43.308;21.916;2023-04-15T09:05:12;4.40;;;1.20;;
55527;SDS011;52818;43.308;21.916;2023-04-15T09:07:12;2.60;;;1.10;;
55527;SDS011;52818;43.308;21.916;2023-04-15T09:09:12;3.10;;;0.90;;
55527;SDS011;52818;43.308;21.916;2023-04-15T09:11:13;4.20;;;1.00;;
55527;SDS011;52818;43.308;21.916;2023-04-15T09:13:13;3.60;;;0.90;;
55527;SDS011;52818;43.308;21.916;2023-04-15T09:15:13;5.00;;;2.20;;
55527;SDS011;52818;43.308;21.916;2023-04-15T09:17:13;7.10;;;4.50;;
55527;SDS011;52818;43.308;21.916;2023-04-15T09:19:19;3.40;;;1.60;;
55527;SDS011;52818;43.308;21.916;2023-04-15T09:21:13;1.20;;;0.60;;
55527;SDS011;52818;43.308;21.916;2023-04-15T09:23:13;1.70;;;0.90;;
55527;SDS011;52818;43.308;21.916;2023-04-15T09:25:30;2.40;;;;;
55527;SDS011;52818;43.308;21.916;2023-04-15T09:27:15;;;;1.00;;
55527;SDS011;52818;43.308;21.916;2023-04-15T09:29:13;2.10;;;0.90;;
55527;SDS011;52818;43.308;21.916;2023-04-15T09:31:13;3.10;;;1.10;;
55527;SDS011;52818;43.308;21.916;2023-04-15T09:33:14;2.20;;;1.00;;
55527;SDS011;52818;43.308;21.916;2023-04-15T09:35:14;3.80;;;0.80;;
55527;SDS011;52818;43.308;21.916;2023-04-15T09:37:14;3.00;;;0.90;;
55527;SDS011;52818;43.308;21.916;2023-04-15T09:39:14;1.70;;;0.70;;
55527;SDS011;52818;43.308;21.916;2023-04-15T09:41:15;2.90;;;0.80;;
55527;SDS011;52818;43.308;21.916;2023-04-15T09:43:14;2.40;;;1.00;;
55527;SDS011;52818;43.308;21.916;2023-04-15T09:45:14;1.60;;;0.90;;
55527;SDS011;52818;43.308;21.916;2023-04-15T09:47:25;3.30;;;;;
55527;SDS011;52818;43.308;21.916;2023-04-15T09:49:14;2.60;;;1.10;;
55527;SDS011;52818;43.308;21.916;2023-04-15T09:51:14;1.90;;;0.80;;
55527;SDS011;52818;43.308;21.916;2023-04-15T09:53:15;4.90;;;3.60;;
55527;SDS011;52818;43.308;21.916;2023-04-15T09:55:16;3.80;;;3.00;;
55527;SDS011;52818;43.308;21.916;2023-04-15T09:57:15;3.10;;;1.30;;
55527;SDS011;52818;43.308;21.916;2023-04-15T09:59:15;2.50;;;1.20;;
55527;SDS011;52818;43.308;21.916;2023-04-15T10:01:15;2.40;;;1.30;;
55527;SDS011;52818;43.308;21.916;2023-04-15T10:03:17;2.80;;;;;
55527;SDS011;52818;43.308;21.916;2023-04-15T10:05:15;3.20;;;1.20;;
55527;SDS011;52818;43.308;21.916;2023-04-15T10:07:16;1.80;;;0.90;;
55527;SDS011;52818;43.308;21.916;2023-04-15T10:09:15;2.60;;;1.00;;
55527;SDS011;52818;43.308;21.916;2023-04-15T10:11:16;3.10;;;;;
55527;SDS011;52818;43.308;21.916;2023-04-15T10:13:16;2.20;;;0.80;;
55527;SDS011;52818;43.308;21.916;2023-04-15T10:15:16;9.10;;;6.30;;
55527;SDS011;52818;43.308;21.916;2023-04-15T10:17:16;30.10;;;20.80;;
55527;SDS011;52818;43.308;21.916;2023-04-15T10:19:16;7.80;;;5.30;;
55527;SDS011;52818;43.308;21.916;2023-04-15T10:21:16;4.00;;;2.50;;
55527;SDS011;52818;43.308;21.916;2023-04-15T10:23:16;3.80;;;2.00;;
55527;SDS011;52818;43.308;21.916;2023-04-15T10:25:16;2.70;;;1.30;;
55527;SDS011;52818;43.308;21.916;2023-04-15T10:27:16;5.30;;;1.80;;
55527;SDS011;52818;43.308;21.916;2023-04-15T10:29:16;1.80;;;1.10;;
55527;SDS011;52818;43.308;21.916;2023-04-15T10:31:46;2.00;;;1.00;;
55527;SDS011;52818;43.308;21.916;2023-04-15T10:33:46;2.60;;;1.30;;
55527;SDS011;52818;43.308;21.916;2023-04-15T10:35:46;2.90;;;1.60;;
55527;SDS011;52818;43.308;21.916;2023-04-15T10:37:47;8.80;;;6.30;;
55527;SDS011;52818;43.308;21.916;2023-04-15T10:39:47;5.30;;;3.50;;
55527;SDS011;52818;43.308;21.916;2023-04-15T10:41:47;2.80;;;1.70;;
55527;SDS011;52818;43.308;21.916;2023-04-15T10:43:48;2.00;;;1.30;;
55527;SDS011;52818;43.308;21.916;2023-04-15T10:45:47;3.00;;;1.40;;
55527;SDS011;52818;43.308;21.916;2023-04-15T10:47:50;3.40;;;;;
55527;SDS011;52818;43.308;21.916;2023-04-15T10:49:48;5.70;;;1.60;;
55527;SDS011;52818;43.308;21.916;2023-04-15T10:51:50;2.50;;;1.40;;
55527;SDS011;52818;43.308;21.916;2023-04-15T10:53:47;2.90;;;1.70;;
55527;SDS011;52818;43.308;21.916;2023-04-15T10:55:48;2.80;;;1.50;;
55527;SDS011;52818;43.308;21.916;2023-04-15T10:57:50;1.80;;;0.90;;
55527;SDS011;52818;43.308;21.916;2023-04-15T11:00:23;2.20;;;1.00;;
55527;SDS011;52818;43.308;21.916;2023-04-15T11:01:49;2.30;;;0.80;;
55527;SDS011;52818;43.308;21.916;2023-04-15T11:03:48;2.00;;;;;
55527;SDS011;52818;43.308;21.916;2023-04-15T11:05:49;2.20;;;;;
55527;SDS011;52818;43.308;21.916;2023-04-15T11:07:50;1.00;;;0.60;;
55527;SDS011;52818;43.308;21.916;2023-04-15T11:09:48;1.40;;;0.70;;
55527;SDS011;52818;43.308;21.916;2023-04-15T11:12:05;2.30;;;0.80;;
55527;SDS011;52818;43.308;21.916;2023-04-15T11:13:49;2.20;;;1.00;;
55527;SDS011;52818;43.308;21.916;2023-04-15T11:15:49;2.30;;;1.20;;
55527;SDS011;52818;43.308;21.916;2023-04-15T11:17:49;1.90;;;1.60;;
55527;SDS011;52818;43.308;21.916;2023-04-15T11:19:49;;;;0.90;;
55527;SDS011;52818;43.308;21.916;2023-04-15T11:21:49;1.80;;;1.10;;
55527;SDS011;52818;43.308;21.916;2023-04-15T11:23:49;3.40;;;1.00;;
55527;SDS011;52818;43.308;21.916;2023-04-15T11:25:49;2.90;;;;;
55527;SDS011;52818;43.308;21.916;2023-04-15T11:27:49;1.50;;;0.90;;
55527;SDS011;52818;43.308;21.916;2023-04-15T11:29:49;1.70;;;0.80;;
55527;SDS011;52818;43.308;21.916;2023-04-15T11:31:49;2.30;;;;;
55527;SDS011;52818;43.308;21.916;2023-04-15T11:33:53;1.70;;;;;
55527;SDS011;52818;43.308;21.916;2023-04-15T11:35:51;1.80;;;1.00;;
55527;SDS011;52818;43.308;21.916;2023-04-15T11:37:50;2.70;;;1.40;;
55527;SDS011;52818;43.308;21.916;2023-04-15T11:39:50;2.10;;;1.20;;
55527;SDS011;52818;43.308;21.916;2023-04-15T11:41:50;;;;0.90;;
55527;SDS011;52818;43.308;21.916;2023-04-15T11:43:50;2.70;;;1.00;;
55527;SDS011;52818;43.308;21.916;2023-04-15T11:45:51;1.60;;;1.20;;
55527;SDS011;52818;43.308;21.916;2023-04-15T11:47:50;2.00;;;0.90;;
55527;SDS011;52818;43.308;21.916;2023-04-15T11:49:50;2.80;;;1.10;;
55527;SDS011;52818;43.308;21.916;2023-04-15T11:51:51;2.20;;;0.90;;
55527;SDS011;52818;43.308;21.916;2023-04-15T11:53:50;1.90;;;;;
55527;SDS011;52818;43.308;21.916;2023-04-15T11:55:51;1.70;;;;;
55527;SDS011;52818;43.308;21.916;2023-04-15T11:58:04;2.50;;;1.20;;
55527;SDS011;52818;43.308;21.916;2023-04-15T11:59:53;2.00;;;1.00;;
55527;SDS011;52818;43.308;21.916;2023-04-15T12:01:51;1.50;;;0.80;;
55527;SDS011;52818;43.308;21.916;2023-04-15T12:03:51;1.60;;;1.20;;
55527;SDS011;52818;43.308;21.916;2023-04-15T12:06:07;6.50;;;3.80;;